CST,Max TemperatureF,Mean TemperatureF,Min TemperatureF,Max Dew PointF,MeanDew PointF,Min DewpointF,Max Humidity, Mean Humidity, Min Humidity, Max Sea Level PressureIn, Mean Sea Level PressureIn, Min Sea Level PressureIn, Max VisibilityMiles, Mean VisibilityMiles, Min VisibilityMiles, Max Wind SpeedMPH, Mean Wind SpeedMPH, Max Gust SpeedMPH,PrecipitationIn, CloudCover, Events, WindDirDegrees
2012-11-1,79,58,37,39,36,31,83,53,22,30.03,29.97,29.88,10,10,10,7,2,,0.00,0,,272
2012-11-2,77,62,48,44,39,31,69,50,19,29.98,29.83,29.75,10,10,10,21,9,29,0.00,0,,98
2012-11-3,63,50,37,36,33,31,83,62,38,30.22,30.16,30.02,10,10,8,20,11,25,0.00,0,,10
2012-11-4,70,48,28,36,31,28,96,58,22,30.22,30.12,30.01,10,9,2,20,4,26,0.00,1,,202
2012-11-5,55,46,37,38,35,31,86,63,45,30.17,30.12,30.05,10,10,10,22,11,30,0.00,4,,349
2012-11-6,66,50,33,37,28,22,89,51,21,30.15,30.11,30.06,10,10,9,18,6,25,0.00,1,,327
2012-11-7,64,48,32,28,25,22,70,43,24,30.21,30.11,30.00,10,10,10,12,6,,0.00,0,,144
2012-11-8,73,60,46,49,38,27,69,46,33,29.99,29.85,29.76,10,10,10,24,13,33,0.00,0,,159
2012-11-9,80,67,54,56,52,48,83,60,38,29.76,29.69,29.62,10,10,10,26,14,36,0.00,0,,169
2012-11-10,75,66,57,56,54,48,88,66,51,29.69,29.62,29.51,10,9,2,34,23,48,0.30,3,Rain-Thunderstorm,194
2012-11-11,51,38,24,48,26,14,88,69,38,30.32,29.96,29.71,10,10,8,23,15,29,0.04,5,Rain,336
2012-11-12,51,36,21,22,18,13,82,54,22,30.47,30.40,30.33,10,10,10,15,6,,0.00,0,,286
2012-11-13,55,41,27,29,25,21,79,57,29,30.42,30.36,30.27,10,10,10,17,4,24,0.00,0,,169
2012-11-14,55,42,30,29,27,23,76,59,34,30.34,30.27,30.21,10,10,10,13,6,,0.00,0,,153
2012-11-15,57,46,34,33,31,28,79,65,37,30.40,30.28,30.19,10,10,10,8,5,,0.00,0,,128
2012-11-16,61,46,30,35,31,27,92,61,30,30.44,30.37,30.31,10,10,7,14,5,16,0.00,0,,149
2012-11-17,62,50,37,32,31,29,73,52,32,30.30,30.23,30.16,10,10,10,28,12,36,0.00,0,,164
2012-11-18,64,52,41,39,33,29,62,49,35,30.18,30.09,30.00,10,10,10,30,15,38,0.00,0,,165
2012-11-19,72,54,37,45,40,35,100,67,30,30.16,30.10,30.03,10,9,2,13,6,,0.00,0,,238
2012-11-20,69,51,33,37,35,29,85,63,30,30.26,30.20,30.14,10,10,10,7,3,,0.00,0,,162
2012-11-21,73,56,39,46,41,35,83,58,28,30.18,30.06,29.87,10,10,10,29,10,39,0.00,0,,173
2012-11-22,73,59,44,50,42,27,67,52,26,30.32,29.96,29.79,10,10,10,21,14,31,0.00,0,,267
2012-11-23,45,34,21,24,17,13,78,48,30,30.59,30.48,30.34,10,10,10,18,11,25,0.00,0,,352
2012-11-24,60,40,21,24,20,15,75,47,22,30.41,30.13,29.88,10,10,10,25,9,31,0.00,0,,184
2012-11-25,61,44,26,32,27,20,78,52,28,29.99,29.91,29.85,10,10,10,16,6,21,0.00,0,,49
2012-11-26,45,35,23,28,24,19,85,68,40,30.49,30.26,29.99,10,10,7,21,13,33,0.00,0,,21
2012-11-27,46,29,12,26,20,9,88,69,40,30.48,30.37,30.26,10,9,6,21,5,25,0.00,0,,182
2012-11-28,57,38,19,31,26,17,92,66,36,30.38,30.26,30.10,10,10,6,17,4,,0.00,0,,154
2012-11-29,63,46,30,40,35,29,92,71,40,30.07,30.01,29.94,10,9,6,13,7,,0.00,0,,171
2012-11-30,63,45,27,48,38,23,97,78,46,30.09,30.00,29.90,10,7,2,12,2,,0.00,1,,144